LDDU Airport Information

Runway Information
Runway 12 Length 10827 ft width 148 ft
Elevation 519 ft Threshold 488 ft Heading 118
Runway 30 Length 10827 ft Width 148 ft
Elevation 484 ft Threshold 0 ft Heading 298
Airport Frequencies
Type APP Name APP Frequency 123.6 MHZ
Type TWR Name TWR Frequency 129.5 MHZ
Airport Navaids
Type NDB Name Dubrovnik Frequency 397 KHZ
Type VOR-DME Name Dubrovnik Frequency 115400 KHZ
Type NDB Name Dubrovnik Frequency 414 KHZ
Type NDB Name Kolocep Frequency 318 KHZ
Airport Weather Information & NOTAM
ADDS - METARS form results

(1535 UTC 08 December 2019)
Data provider http://aviationweather.gov/metar/data/
 
METAR text: LDDU 081530Z 31006KT CAVOK 12/08 Q1020 NOSIG
Conditions at: LDDU (DUBROVNIK-CILIPI, HR) observed 1530 UTC 08 December 2019
Temperature: 12.0°C (54°F)
Dewpoint: 8.0°C (46°F) [RH = 76%]
Pressure (altimeter): 30.12 inches Hg (1020.0 mb)
Winds: from the NW (310 degrees) at 7 MPH (6 knots; 3.1 m/s)
Visibility: 6 or more miles (10+ km)
Ceiling: ceiling and visibility are OK
Clouds: unknown
Weather: no significant weather observed at this time

METAR text: LDDU 081500Z 30007KT CAVOK 13/08 Q1020 NOSIG
Conditions at: LDDU (DUBROVNIK-CILIPI, HR) observed 1500 UTC 08 December 2019
Temperature: 13.0°C (55°F)
Dewpoint: 8.0°C (46°F) [RH = 72%]
Pressure (altimeter): 30.12 inches Hg (1020.0 mb)
Winds: from the WNW (300 degrees) at 8 MPH (7 knots; 3.6 m/s)
Visibility: 6 or more miles (10+ km)
Ceiling: ceiling and visibility are OK
Clouds: unknown
Weather: no significant weather observed at this time

Forecast for: LDDU (DUBROVNIK-CILIPI, HR)
Text: TAF LDDU 081125Z 0812/0912 29006KT 9999 FEW030 TX14/0812Z TN08/0900Z
Forecast period: 1200 to 1600 UTC 08 December 2019
Forecast type: FROM: standard forecast or significant change
Winds: from the WNW (290 degrees) at 7 MPH (6 knots; 3.1 m/s)
Visibility: 6 or more miles 10+ km)
Ceiling: at least 12,000 feet AGL
Clouds: few clouds at 3000 feet AGL
Weather: no significant weather forecast for this period
Text: BECMG 0816/0818 08005KT
Forecast period: 1600 UTC 08 December 2019 to 0800 UTC 09 December 2019
Forecast type: BECOMING: Conditions expected to become as follows by 1800 UTC 08 December 2019
Winds: from the E (80 degrees) at 6 MPH (5 knots; 2.6 m/s)
Visibility: 6 or more miles 10+ km)
Ceiling: at least 12,000 feet AGL
Clouds: few clouds at 3000 feet AGL
Weather: no significant weather forecast for this period
Text: BECMG 0908/0910 14010KT
Forecast period: 0800 to 1200 UTC 09 December 2019
Forecast type: BECOMING: Conditions expected to become as follows by 1000 UTC 09 December 2019
Winds: from the SE (140 degrees) at 12 MPH (10 knots; 5.1 m/s)
Visibility: 6 or more miles 10+ km)
Ceiling: at least 12,000 feet AGL
Clouds: few clouds at 3000 feet AGL
Weather: no significant weather forecast for this period